Time;durP1;ratioP1;P1;durP2;ratioP2;P2;SDS_P1;SDS_P2;PMS_P1;PMS_P2;Temp;Humidity;BMP_temperature;BMP_pressure;BME280_temperature;BME280_humidity;BME280_pressure;Samples;Min_cycle;Max_cycle;Signal;HPM_P1;HPM_P2
2021/08/05 00:01:53;;;;;;;;;0.00;0.00;;;;;19.73;58.99;100815.88;6087903;23;46465;-81
2021/08/05 00:04:18;;;;;;;;;0.00;0.00;;;;;19.75;58.59;100819.34;6088283;23;45383;-81
2021/08/05 00:06:43;;;;;;;;;0.00;0.00;;;;;19.71;58.86;100816.84;6088906;23;45328;-80
2021/08/05 00:09:09;;;;;;;;;0.00;0.00;;;;;19.71;58.72;100817.72;6086280;23;46325;-80
2021/08/05 00:11:35;;;;;;;;;0.00;0.00;;;;;19.58;58.89;100796.06;6088010;23;45332;-81
2021/08/05 00:14:00;;;;;;;;;0.00;0.00;;;;;19.49;59.06;100780.47;6088514;23;45345;-80
2021/08/05 00:16:25;;;;;;;;;0.00;0.00;;;;;19.40;59.05;100788.66;6088047;23;50727;-80
2021/08/05 00:18:51;;;;;;;;;0.00;0.00;;;;;19.06;59.80;100756.97;6089124;23;45302;-81
2021/08/05 00:21:17;;;;;;;;;0.00;0.00;;;;;19.23;59.61;100789.97;6087965;23;46224;-79
2021/08/05 00:23:43;;;;;;;;;0.00;0.00;;;;;19.22;59.65;100789.13;6088483;23;45326;-80
2021/08/05 00:26:08;;;;;;;;;0.00;0.00;;;;;18.85;60.12;100727.63;6086661;23;45270;-81
2021/08/05 00:28:34;;;;;;;;;0.00;0.00;;;;;19.15;60.09;100781.41;6086660;23;45386;-81
2021/08/05 00:30:59;;;;;;;;;0.00;0.00;;;;;19.06;60.07;100785.13;6088297;23;46146;-82
2021/08/05 00:33:25;;;;;;;;;0.00;0.00;;;;;18.94;60.36;100770.47;6088314;23;47828;-82
2021/08/05 00:35:50;;;;;;;;;1.00;0.00;;;;;19.05;59.96;100783.41;6088140;23;45305;-80
2021/08/05 00:38:16;;;;;;;;;1.00;0.00;;;;;19.07;60.36;100781.56;6089238;23;45293;-81
2021/08/05 00:40:41;;;;;;;;;0.00;0.00;;;;;18.67;59.79;100715.78;6086165;23;47534;-81
2021/08/05 00:43:06;;;;;;;;;0.00;0.00;;;;;19.11;60.29;100780.59;6087988;23;45515;-81
2021/08/05 00:45:32;;;;;;;;;0.00;0.00;;;;;18.93;60.39;100745.88;6087950;23;51683;-80
2021/08/05 00:47:57;;;;;;;;;0.00;0.00;;;;;19.12;59.94;100782.38;6088823;23;45303;-81
2021/08/05 00:50:23;;;;;;;;;0.00;0.00;;;;;19.04;60.37;100758.78;6088894;23;45305;-81
2021/08/05 00:52:48;;;;;;;;;0.00;0.00;;;;;19.11;60.02;100755.09;6090224;23;45332;-82
2021/08/05 00:55:13;;;;;;;;;0.00;0.00;;;;;19.31;60.08;100776.56;6088086;23;53532;-82
2021/08/05 00:57:39;;;;;;;;;0.00;0.00;;;;;18.52;59.74;100659.03;6090722;23;45313;-82
2021/08/05 01:00:04;;;;;;;;;0.00;0.00;;;;;18.95;60.51;100732.63;6090409;23;46516;-81
2021/08/05 01:02:36;;;;;;;;;0.00;0.00;;;;;19.30;60.12;100778.38;6090013;23;45521;-82
2021/08/05 01:05:03;;;;;;;;;0.00;0.00;;;;;18.95;60.28;100707.13;6090199;23;45212;-80
2021/08/05 01:07:36;;;;;;;;;0.00;0.00;;;;;19.18;60.01;100742.63;6090673;23;45429;-82
2021/08/05 01:10:09;;;;;;;;;0.00;0.00;;;;;19.13;60.30;100731.31;6087491;23;46105;-81
2021/08/05 01:12:51;;;;;;;;;0.00;0.00;;;;;19.39;60.22;100763.19;6089768;23;45450;-81
2021/08/05 01:15:22;;;;;;;;;0.00;0.00;;;;;19.33;60.01;100765.06;6090241;23;45281;-81
2021/08/05 01:17:52;;;;;;;;;0.00;0.00;;;;;19.24;60.52;100766.19;6090341;23;45390;-81
2021/08/05 01:20:21;;;;;;;;;1.00;0.00;;;;;19.14;60.65;100758.56;6089873;23;45236;-81
2021/08/05 01:23:24;;;;;;;;;0.75;0.00;;;;;19.09;60.95;100759.56;6090285;23;45312;-81
2021/08/05 01:25:57;;;;;;;;;0.00;0.00;;;;;19.08;60.67;100757.81;6090143;23;45319;-81
2021/08/05 01:28:22;;;;;;;;;0.00;0.00;;;;;18.97;60.98;100734.34;6090150;23;45316;-81
2021/08/05 01:30:50;;;;;;;;;0.00;0.00;;;;;19.18;61.06;100762.84;6089856;23;45619;-81
2021/08/05 01:33:19;;;;;;;;;0.00;0.00;;;;;19.21;60.77;100763.63;6089927;23;45313;-81
2021/08/05 01:35:47;;;;;;;;;2.00;2.00;;;;;18.97;60.53;100710.63;6089564;23;45364;-81
2021/08/05 01:38:15;;;;;;;;;0.00;0.00;;;;;19.13;61.08;100757.69;6090241;23;45312;-81
2021/08/05 01:40:41;;;;;;;;;0.00;0.00;;;;;19.09;60.80;100761.34;6089848;23;45360;-81
2021/08/05 01:43:08;;;;;;;;;0.00;0.00;;;;;18.66;61.52;100700.00;6089932;23;45382;-81
2021/08/05 01:45:36;;;;;;;;;0.00;0.00;;;;;18.92;61.53;100757.34;6090262;23;45344;-81
2021/08/05 01:48:04;;;;;;;;;0.00;0.00;;;;;18.26;61.68;100622.81;6089782;23;45381;-81
2021/08/05 01:50:30;;;;;;;;;0.00;0.00;;;;;19.05;61.79;100746.47;6089295;23;45244;-82
2021/08/05 01:52:55;;;;;;;;;0.00;0.00;;;;;19.03;61.52;100748.28;6089663;23;45255;-81
2021/08/05 01:55:21;;;;;;;;;0.00;0.00;;;;;18.96;61.93;100740.50;6089990;23;45532;-81
2021/08/05 01:57:46;;;;;;;;;0.00;0.00;;;;;18.95;61.88;100737.91;6089645;23;45285;-82
2021/08/05 02:00:12;;;;;;;;;0.00;0.00;;;;;18.91;62.27;100729.25;6089721;23;45452;-81
2021/08/05 02:02:37;;;;;;;;;0.50;0.50;;;;;18.68;62.12;100704.31;6089346;23;45329;-80
2021/08/05 02:05:11;;;;;;;;;0.00;0.00;;;;;18.83;62.29;100728.56;6089198;23;45403;-81
2021/08/05 02:07:45;;;;;;;;;0.00;0.00;;;;;18.82;62.58;100730.34;6089780;23;45333;-81
2021/08/05 02:10:20;;;;;;;;;0.00;0.00;;;;;18.54;62.47;100682.72;6089457;23;45921;-81
2021/08/05 02:13:00;;;;;;;;;0.00;0.00;;;;;18.80;62.58;100723.38;6087516;23;45265;-80
2021/08/05 02:15:28;;;;;;;;;0.00;0.00;;;;;18.39;62.90;100682.22;6089637;23;45380;-81
2021/08/05 02:17:55;;;;;;;;;0.00;0.00;;;;;18.35;63.09;100656.84;6088697;23;45297;-80
2021/08/05 02:20:21;;;;;;;;;0.50;0.50;;;;;18.73;62.93;100718.25;6087697;23;47041;-80
2021/08/05 02:22:48;;;;;;;;;0.25;0.25;;;;;18.63;63.11;100715.91;6087097;23;45842;-83
2021/08/05 02:25:14;;;;;;;;;0.00;0.00;;;;;18.53;63.07;100705.56;6088862;23;45313;-80
2021/08/05 02:27:41;;;;;;;;;0.00;0.00;;;;;18.56;62.92;100717.84;6089823;23;45321;-82
2021/08/05 02:30:08;;;;;;;;;0.00;0.00;;;;;18.64;62.90;100718.50;6089437;23;45286;-82
2021/08/05 02:32:35;;;;;;;;;0.00;0.00;;;;;18.60;62.83;100706.31;6088756;23;45366;-82
2021/08/05 02:35:04;;;;;;;;;0.00;0.00;;;;;18.50;62.65;100679.31;6089704;23;45278;-82
2021/08/05 02:37:30;;;;;;;;;0.00;0.00;;;;;18.60;62.69;100701.91;6089761;23;45410;-82
2021/08/05 02:39:55;;;;;;;;;0.50;0.00;;;;;18.36;62.79;100669.13;6089111;23;45289;-81
2021/08/05 02:42:22;;;;;;;;;0.00;0.00;;;;;18.59;62.84;100704.56;6087065;23;45448;-82
2021/08/05 02:44:48;;;;;;;;;0.00;0.00;;;;;18.30;62.71;100662.25;6089201;23;45164;-82
2021/08/05 02:47:14;;;;;;;;;0.00;0.00;;;;;18.48;63.28;100692.53;6089034;23;45251;-81
2021/08/05 02:49:40;;;;;;;;;0.00;0.00;;;;;18.58;63.08;100706.34;6086091;23;46285;-82
2021/08/05 02:52:06;;;;;;;;;0.00;0.00;;;;;18.29;63.07;100649.09;6088786;23;45243;-81
2021/08/05 02:54:32;;;;;;;;;0.00;0.00;;;;;18.63;63.07;100693.03;6089651;23;45304;-82
2021/08/05 02:56:58;;;;;;;;;0.00;0.00;;;;;17.91;62.61;100572.72;6089561;23;45507;-81
2021/08/05 02:59:27;;;;;;;;;0.00;0.00;;;;;18.69;62.93;100707.84;6085953;23;46069;-81
2021/08/05 03:01:52;;;;;;;;;0.00;0.00;;;;;18.59;62.83;100678.22;6088322;23;45345;-81
2021/08/05 03:04:18;;;;;;;;;0.75;0.00;;;;;18.79;63.13;100708.44;6089176;23;45355;-81
2021/08/05 03:06:45;;;;;;;;;0.00;0.00;;;;;18.85;62.77;100703.03;6089292;23;45254;-82
2021/08/05 03:09:11;;;;;;;;;0.00;0.00;;;;;18.89;62.95;100699.38;6088814;23;46418;-81
2021/08/05 03:11:36;;;;;;;;;0.25;0.00;;;;;18.94;62.70;100700.16;6088510;23;45382;-81
2021/08/05 03:14:02;;;;;;;;;0.00;0.00;;;;;18.75;62.45;100660.22;6088791;23;45538;-81
2021/08/05 03:16:27;;;;;;;;;0.25;0.25;;;;;18.70;62.68;100654.19;6088904;23;45317;-81
2021/08/05 03:18:52;;;;;;;;;1.25;0.00;;;;;18.60;62.38;100621.94;6088334;23;48214;-81
2021/08/05 03:21:18;;;;;;;;;2.50;0.00;;;;;18.95;62.62;100683.41;6088425;23;45320;-81
2021/08/05 03:23:43;;;;;;;;;0.50;0.50;;;;;19.04;62.07;100686.69;6086328;23;45982;-82
2021/08/05 03:26:08;;;;;;;;;0.00;0.00;;;;;18.83;62.43;100665.25;6089211;23;45300;-81
2021/08/05 03:28:34;;;;;;;;;1.00;1.00;;;;;18.87;62.52;100673.06;6088031;23;46267;-81
2021/08/05 03:30:59;;;;;;;;;0.00;0.00;;;;;18.42;62.80;100631.19;6087704;23;45381;-81
2021/08/05 03:33:25;;;;;;;;;1.00;1.00;;;;;18.39;63.08;100636.53;6086291;23;45693;-81
2021/08/05 03:35:50;;;;;;;;;0.00;0.00;;;;;18.38;63.17;100637.47;6088633;23;45362;-81
2021/08/05 03:38:16;;;;;;;;;1.00;1.00;;;;;18.48;63.22;100645.09;6088063;23;46283;-82
2021/08/05 03:40:41;;;;;;;;;0.00;0.00;;;;;18.38;63.62;100622.53;6089038;23;45451;-81
2021/08/05 03:43:06;;;;;;;;;1.00;0.00;;;;;18.58;63.12;100665.91;6088983;23;45365;-82
2021/08/05 03:45:32;;;;;;;;;0.00;0.00;;;;;18.42;64.18;100674.25;6088296;23;45317;-81
2021/08/05 03:47:57;;;;;;;;;0.00;0.00;;;;;18.32;64.35;100670.09;6087780;23;46259;-81
2021/08/05 03:50:22;;;;;;;;;0.00;0.00;;;;;18.22;64.52;100662.41;6087456;23;45679;-81
2021/08/05 03:52:48;;;;;;;;;1.50;0.00;;;;;17.68;64.98;100577.66;6088277;23;45393;-81
2021/08/05 03:55:13;;;;;;;;;1.25;1.00;;;;;18.18;64.31;100663.41;6088250;23;45329;-81
2021/08/05 03:57:40;;;;;;;;;0.25;0.00;;;;;18.13;64.34;100646.81;6088111;23;46019;-82
2021/08/05 04:00:10;;;;;;;;;0.00;0.00;;;;;18.27;64.60;100672.84;6088400;23;45540;-82
2021/08/05 04:02:36;;;;;;;;;0.00;0.00;;;;;18.29;64.51;100670.19;6088433;23;45329;-81
2021/08/05 04:05:01;;;;;;;;;1.00;1.00;;;;;17.95;64.32;100612.09;6088928;23;45561;-81
2021/08/05 04:07:26;;;;;;;;;0.00;0.00;;;;;18.23;64.35;100650.97;6087223;23;45960;-81
2021/08/05 04:09:52;;;;;;;;;1.00;0.00;;;;;18.01;64.25;100600.56;6087899;23;45303;-81
2021/08/05 04:12:17;;;;;;;;;0.00;0.00;;;;;17.44;64.47;100519.44;6088239;23;47729;-81
2021/08/05 04:14:42;;;;;;;;;0.00;0.00;;;;;18.42;64.43;100658.44;6088163;23;45388;-81
2021/08/05 04:17:08;;;;;;;;;0.75;0.00;;;;;18.17;64.34;100618.66;6085526;23;47262;-81
2021/08/05 04:19:33;;;;;;;;;0.00;0.00;;;;;18.45;64.16;100660.09;6088041;23;45266;-81
2021/08/05 04:21:58;;;;;;;;;0.00;0.00;;;;;18.26;63.96;100633.38;6088071;23;50451;-81
2021/08/05 04:24:23;;;;;;;;;3.00;0.00;;;;;18.47;63.90;100671.50;6087714;23;45333;-81
2021/08/05 04:26:49;;;;;;;;;0.25;0.00;;;;;18.26;64.19;100622.81;6089625;23;48408;-82
2021/08/05 04:29:14;;;;;;;;;0.00;0.00;;;;;18.44;64.34;100651.31;6089065;23;52086;-81
2021/08/05 04:31:39;;;;;;;;;0.00;0.00;;;;;18.58;63.93;100652.75;6089998;23;45330;-81
2021/08/05 04:34:05;;;;;;;;;0.00;0.00;;;;;18.61;64.00;100661.44;6090463;23;45195;-82
2021/08/05 04:36:30;;;;;;;;;0.00;0.00;;;;;18.54;63.89;100651.97;6089695;23;46027;-82
2021/08/05 04:38:55;;;;;;;;;1.00;1.00;;;;;18.67;63.57;100656.91;6087732;23;45669;-81
2021/08/05 04:41:21;;;;;;;;;0.00;0.00;;;;;18.69;64.21;100657.75;6090211;23;45387;-82
2021/08/05 04:43:46;;;;;;;;;0.00;0.00;;;;;18.48;63.69;100620.50;6088596;23;45273;-80
2021/08/05 04:46:11;;;;;;;;;0.25;0.25;;;;;18.48;63.77;100613.47;6089330;23;45844;-81
2021/08/05 04:48:37;;;;;;;;;0.00;0.00;;;;;18.80;63.59;100657.47;6089032;23;47509;-81
2021/08/05 04:51:02;;;;;;;;;1.25;0.00;;;;;18.83;64.10;100660.88;6090081;23;45376;-81
2021/08/05 04:53:27;;;;;;;;;0.00;0.00;;;;;18.45;63.65;100591.59;6090275;23;45360;-80
2021/08/05 04:55:52;;;;;;;;;0.00;0.00;;;;;18.89;63.85;100665.09;6090054;23;46087;-80
2021/08/05 04:58:18;;;;;;;;;0.00;0.00;;;;;18.89;63.55;100669.53;6089190;23;45344;-81
2021/08/05 05:00:43;;;;;;;;;0.00;0.00;;;;;18.90;63.70;100661.56;6088838;23;46113;-81
2021/08/05 05:03:09;;;;;;;;;0.50;0.00;;;;;18.87;63.42;100659.88;6089685;23;45376;-81
2021/08/05 05:05:36;;;;;;;;;0.00;0.00;;;;;18.97;63.44;100676.31;6090059;23;45672;-81
2021/08/05 05:08:19;;;;;;;;;1.00;1.00;;;;;18.92;63.43;100690.53;6088709;23;45505;-81
2021/08/05 05:10:46;;;;;;;;;0.00;0.00;;;;;18.86;63.47;100686.28;6087968;23;45691;-81
2021/08/05 05:13:11;;;;;;;;;1.75;0.00;;;;;18.77;63.66;100671.56;6087511;23;45337;-81
2021/08/05 05:15:37;;;;;;;;;0.00;0.00;;;;;18.87;63.70;100678.31;6087089;23;47513;-81
2021/08/05 05:18:04;;;;;;;;;0.00;0.00;;;;;18.87;63.60;100683.59;6088863;23;45340;-81
2021/08/05 05:20:29;;;;;;;;;0.00;0.00;;;;;18.80;63.46;100681.19;6089187;23;45383;-81
2021/08/05 05:22:54;;;;;;;;;0.00;0.00;;;;;18.78;63.91;100680.34;6088821;23;45311;-82
2021/08/05 05:25:20;;;;;;;;;0.00;0.00;;;;;18.31;63.94;100594.56;6086897;23;47272;-81
2021/08/05 05:27:45;;;;;;;;;0.00;0.00;;;;;18.60;63.58;100643.91;6088651;23;45822;-81
2021/08/05 05:30:11;;;;;;;;;0.25;0.25;;;;;18.43;63.57;100612.72;6088761;23;46310;-82
2021/08/05 05:32:37;;;;;;;;;0.50;0.00;;;;;18.86;63.75;100673.09;6087304;23;45327;-81
2021/08/05 05:35:04;;;;;;;;;2.00;1.00;;;;;18.87;63.18;100673.06;6088538;23;45425;-82
2021/08/05 05:37:29;;;;;;;;;0.00;0.00;;;;;18.79;63.37;100672.41;6088904;23;45434;-82
2021/08/05 05:39:55;;;;;;;;;0.00;0.00;;;;;18.77;63.60;100673.38;6089006;23;45536;-82
2021/08/05 05:42:22;;;;;;;;;0.00;0.00;;;;;18.73;63.19;100684.00;6088721;23;45309;-81
2021/08/05 05:44:48;;;;;;;;;0.75;0.75;;;;;18.59;63.40;100686.97;6088975;23;45274;-82
2021/08/05 05:47:14;;;;;;;;;0.00;0.00;;;;;18.44;64.06;100663.66;6085565;23;45479;-81
2021/08/05 05:49:39;;;;;;;;;0.00;0.00;;;;;18.68;63.59;100687.66;6087604;23;45370;-82
2021/08/05 05:52:06;;;;;;;;;0.00;0.00;;;;;18.69;63.54;100684.09;6088727;23;45353;-80
2021/08/05 05:54:31;;;;;;;;;1.75;0.00;;;;;18.71;63.16;100693.69;6088403;23;46235;-81
2021/08/05 05:56:56;;;;;;;;;0.00;0.00;;;;;18.67;64.08;100684.16;6088540;23;45373;-81
2021/08/05 05:59:22;;;;;;;;;0.00;0.00;;;;;18.67;63.34;100686.78;6089406;23;45890;-81
2021/08/05 06:01:47;;;;;;;;;0.00;0.00;;;;;18.58;63.60;100701.06;6085958;23;45398;-82
2021/08/05 06:04:13;;;;;;;;;0.00;0.00;;;;;18.63;63.29;100694.81;6088281;23;45268;-82
2021/08/05 06:06:38;;;;;;;;;2.00;0.00;;;;;18.17;63.10;100622.16;6085611;23;45400;-82
2021/08/05 06:09:03;;;;;;;;;0.00;0.00;;;;;18.61;62.77;100689.56;6088098;23;53429;-81
2021/08/05 06:11:29;;;;;;;;;0.75;0.00;;;;;18.40;63.17;100657.59;6088377;23;45262;-82
2021/08/05 06:13:55;;;;;;;;;0.00;0.00;;;;;18.49;63.07;100675.81;6088960;23;45881;-81
2021/08/05 06:16:21;;;;;;;;;0.25;0.00;;;;;18.61;63.08;100693.09;6088449;23;45678;-83
2021/08/05 06:18:47;;;;;;;;;0.00;0.00;;;;;18.66;63.15;100705.28;6087713;23;45343;-81
2021/08/05 06:21:12;;;;;;;;;0.00;0.00;;;;;18.68;62.79;100704.31;6088081;23;45230;-80
2021/08/05 06:23:37;;;;;;;;;0.00;0.00;;;;;18.35;62.92;100655.06;6087599;23;45777;-80
2021/08/05 06:26:03;;;;;;;;;0.25;0.25;;;;;18.52;62.82;100693.31;6088120;23;45295;-80
2021/08/05 06:28:28;;;;;;;;;0.00;0.00;;;;;18.45;63.33;100711.06;6087741;23;45287;-79
2021/08/05 06:30:53;;;;;;;;;0.25;0.00;;;;;18.37;63.50;100713.00;6088768;23;45336;-79
2021/08/05 06:33:19;;;;;;;;;0.00;0.00;;;;;18.36;63.83;100703.38;6088425;23;45510;-78
2021/08/05 06:35:44;;;;;;;;;0.00;0.00;;;;;18.45;63.48;100705.78;6088051;23;48020;-80
2021/08/05 06:38:09;;;;;;;;;0.75;0.00;;;;;18.47;63.15;100695.22;6088310;23;45318;-79
2021/08/05 06:40:35;;;;;;;;;0.00;0.00;;;;;18.64;63.51;100713.22;6087282;23;45305;-80
2021/08/05 06:43:00;;;;;;;;;0.00;0.00;;;;;18.38;63.29;100654.16;6088435;23;46049;-79
2021/08/05 06:45:26;;;;;;;;;3.50;0.00;;;;;17.92;62.86;100574.47;6088651;23;45277;-81
2021/08/05 06:47:51;;;;;;;;;0.00;0.00;;;;;18.51;62.87;100657.31;6087740;23;45304;-81
2021/08/05 06:50:18;;;;;;;;;0.00;0.00;;;;;18.75;62.96;100702.41;6088234;23;45404;-78
2021/08/05 06:52:43;;;;;;;;;0.00;0.00;;;;;18.71;62.48;100683.16;6087788;23;47611;-80
2021/08/05 06:55:09;;;;;;;;;0.00;0.00;;;;;18.94;62.34;100702.78;6087722;23;45342;-78
2021/08/05 06:57:35;;;;;;;;;1.00;1.00;;;;;18.78;62.06;100670.69;6085253;23;45321;-77
2021/08/05 07:00:00;;;;;;;;;0.00;0.00;;;;;18.94;62.29;100694.00;6087243;23;45440;-78
2021/08/05 07:02:26;;;;;;;;;0.00;0.00;;;;;18.84;61.69;100661.75;6088025;23;45953;-80
2021/08/05 07:04:52;;;;;;;;;0.00;0.00;;;;;19.09;61.72;100698.91;6088398;23;45357;-78
2021/08/05 07:07:17;;;;;;;;;0.00;0.00;;;;;19.19;61.73;100693.34;6085387;23;45335;-80
2021/08/05 07:09:43;;;;;;;;;0.00;0.00;;;;;19.24;61.38;100696.72;6088493;23;45492;-79
2021/08/05 07:12:08;;;;;;;;;0.00;0.00;;;;;19.23;61.42;100705.53;6087552;23;46615;-80
2021/08/05 07:14:34;;;;;;;;;0.00;0.00;;;;;18.68;61.11;100614.69;6087888;23;45221;-79
2021/08/05 07:16:59;;;;;;;;;0.00;0.00;;;;;19.20;60.86;100705.66;6087190;23;45361;-81
2021/08/05 07:19:25;;;;;;;;;0.00;0.00;;;;;19.09;61.07;100696.25;6088725;23;45218;-81
2021/08/05 07:21:51;;;;;;;;;0.00;0.00;;;;;19.11;61.19;100701.47;6086939;23;45676;-83
2021/08/05 07:24:17;;;;;;;;;0.75;0.75;;;;;18.59;61.14;100612.31;6085846;23;45812;-82
2021/08/05 07:26:42;;;;;;;;;0.00;0.00;;;;;19.07;61.44;100697.16;6088026;23;45682;-79
2021/08/05 07:29:08;;;;;;;;;0.75;0.00;;;;;19.26;61.94;100699.31;6088157;23;45394;-83
2021/08/05 07:31:34;;;;;;;;;0.50;0.00;;;;;19.39;61.12;100706.00;6086988;23;45349;-78
2021/08/05 07:33:59;;;;;;;;;0.50;0.50;;;;;19.46;61.17;100706.66;6083913;23;45424;-79
2021/08/05 07:36:24;;;;;;;;;0.00;0.00;;;;;19.54;60.84;100701.16;6086433;23;45279;-80
2021/08/05 07:38:50;;;;;;;;;0.00;0.00;;;;;19.57;60.73;100709.00;6088479;23;45363;-79
2021/08/05 07:41:16;;;;;;;;;0.00;0.00;;;;;19.42;60.44;100678.63;6085768;23;47210;-82
2021/08/05 07:43:41;;;;;;;;;0.00;0.00;;;;;19.68;60.04;100706.88;6084209;23;45957;-82
2021/08/05 07:46:06;;;;;;;;;1.00;0.25;;;;;19.77;60.28;100703.09;6067890;23;45561;-82
2021/08/05 07:48:32;;;;;;;;;0.25;0.25;;;;;19.82;59.73;100703.81;6077287;23;45286;-81
2021/08/05 07:50:58;;;;;;;;;0.00;0.00;;;;;19.85;59.27;100700.22;6084027;23;45495;-81
2021/08/05 07:53:23;;;;;;;;;0.00;0.00;;;;;19.87;59.17;100701.91;6086165;23;45259;-82
2021/08/05 07:55:48;;;;;;;;;0.00;0.00;;;;;19.90;59.08;100687.72;6087003;23;45246;-81
2021/08/05 07:58:13;;;;;;;;;1.50;1.50;;;;;20.01;58.88;100692.72;6086704;23;45390;-81
2021/08/05 08:00:39;;;;;;;;;1.00;0.00;;;;;19.80;58.42;100644.03;6087173;23;46283;-82
2021/08/05 08:03:05;;;;;;;;;0.00;0.00;;;;;20.15;58.74;100700.19;6085834;23;45601;-80
2021/08/05 08:05:31;;;;;;;;;0.00;0.00;;;;;20.07;58.53;100665.22;6086207;23;45766;-81
2021/08/05 08:07:56;;;;;;;;;0.00;0.00;;;;;19.57;58.75;100579.63;6087115;23;45440;-82
2021/08/05 08:10:21;;;;;;;;;0.00;0.00;;;;;20.15;58.21;100673.75;6086173;23;45961;-79
2021/08/05 08:12:47;;;;;;;;;0.00;0.00;;;;;19.98;58.60;100639.94;6083910;23;45500;-82
2021/08/05 08:15:13;;;;;;;;;0.00;0.00;;;;;20.19;58.57;100678.06;6085254;23;45350;-81
2021/08/05 08:17:38;;;;;;;;;0.25;0.00;;;;;20.30;58.32;100687.41;6084756;23;45424;-81
2021/08/05 08:20:09;;;;;;;;;0.75;0.75;;;;;20.35;58.09;100682.81;6086071;23;45641;-78
2021/08/05 08:22:35;;;;;;;;;0.25;0.00;;;;;20.33;58.13;100668.78;6083678;23;45274;-80
2021/08/05 08:25:00;;;;;;;;;0.00;0.00;;;;;20.50;57.81;100684.97;6087156;23;45343;-79
2021/08/05 08:27:26;;;;;;;;;0.00;0.00;;;;;20.40;57.75;100656.25;6085603;23;45530;-79
2021/08/05 08:29:51;;;;;;;;;0.00;0.00;;;;;20.61;57.73;100681.09;6087324;23;45512;-80
2021/08/05 08:32:17;;;;;;;;;0.00;0.00;;;;;20.59;57.24;100653.81;6087198;23;45541;-79
2021/08/05 08:34:42;;;;;;;;;0.00;0.00;;;;;20.66;57.08;100663.28;6086382;23;45441;-79
2021/08/05 08:37:07;;;;;;;;;0.00;0.00;;;;;20.68;56.87;100650.00;6086873;23;45396;-80
2021/08/05 08:39:33;;;;;;;;;0.75;0.75;;;;;20.82;56.93;100660.94;6086532;23;45444;-80
2021/08/05 08:41:58;;;;;;;;;0.50;0.50;;;;;20.84;56.97;100660.88;6087300;23;45272;-80
2021/08/05 08:44:24;;;;;;;;;0.00;0.00;;;;;20.81;57.12;100647.78;6086670;23;45443;-79
2021/08/05 08:46:49;;;;;;;;;0.00;0.00;;;;;20.86;56.77;100659.91;6087492;23;45333;-80
2021/08/05 08:49:22;;;;;;;;;0.00;0.00;;;;;20.87;56.77;100652.84;6085700;23;46297;-78
2021/08/05 08:51:47;;;;;;;;;0.00;0.00;;;;;21.01;55.94;100666.47;6087642;23;45299;-92
2021/08/05 08:54:13;;;;;;;;;1.00;0.00;;;;;21.00;56.04;100654.16;6086904;23;45356;-79
2021/08/05 08:56:40;;;;;;;;;0.50;0.50;;;;;21.03;56.00;100655.81;6086647;23;45425;-78
2021/08/05 08:59:06;;;;;;;;;1.25;1.25;;;;;21.01;55.04;100642.66;6084789;23;47390;-80
2021/08/05 09:01:32;;;;;;;;;0.00;0.00;;;;;21.12;55.35;100658.13;6086495;23;45301;-80
2021/08/05 09:03:57;;;;;;;;;0.00;0.00;;;;;21.10;55.50;100657.31;6086941;23;45393;-78
2021/08/05 09:06:23;;;;;;;;;0.00;0.00;;;;;21.04;54.52;100641.66;6086935;23;45314;-79
2021/08/05 09:08:49;;;;;;;;;0.00;0.00;;;;;21.16;54.98;100664.16;6086236;23;46624;-80
2021/08/05 09:11:15;;;;;;;;;0.50;0.00;;;;;21.07;55.17;100662.72;6086501;23;45293;-81
2021/08/05 09:13:40;;;;;;;;;0.00;0.00;;;;;21.02;55.35;100668.19;6088216;23;45303;-80
2021/08/05 09:16:28;;;;;;;;;0.00;0.00;;;;;21.07;55.86;100675.13;6088747;23;45596;-80
2021/08/05 09:18:54;;;;;;;;;0.00;0.00;;;;;21.03;55.54;100647.88;6087961;23;46001;-80
2021/08/05 09:21:22;;;;;;;;;0.00;0.00;;;;;21.03;55.32;100624.06;6088065;23;45326;-82
2021/08/05 09:23:55;;;;;;;;;0.75;0.75;;;;;21.59;55.27;100664.31;6088250;23;45297;-81
2021/08/05 09:26:24;;;;;;;;;1.00;1.00;;;;;21.65;54.09;100650.84;6088727;23;45396;-82
2021/08/05 09:29:23;;;;;;;;;0.00;0.00;;;;;21.74;53.74;100664.63;6085684;23;47250;-81
2021/08/05 09:31:51;;;;;;;;;0.00;0.00;;;;;21.85;53.78;100665.13;6177633;23;45721;-80
2021/08/05 09:34:19;;;;;;;;;0.00;0.00;;;;;21.84;53.06;100662.53;6178502;23;45358;-79
2021/08/05 09:36:46;;;;;;;;;0.00;0.00;;;;;21.79;52.94;100665.34;6153708;23;45292;-81
2021/08/05 09:39:24;;;;;;;;;0.00;0.00;;;;;21.83;52.87;100666.97;6178029;23;45859;-79
2021/08/05 09:41:52;;;;;;;;;1.00;0.00;;;;;21.91;52.93;100666.66;6177690;23;45470;-82
2021/08/05 09:44:18;;;;;;;;;0.25;0.25;;;;;21.87;53.09;100646.53;6178956;23;45373;-82
2021/08/05 09:46:43;;;;;;;;;0.00;0.00;;;;;22.17;53.19;100661.22;6182104;23;45294;-84
2021/08/05 09:49:18;;;;;;;;;0.00;0.00;;;;;22.31;52.67;100632.34;6180812;23;45443;-86
2021/08/05 09:51:45;;;;;;;;;0.00;0.00;;;;;22.41;51.90;100611.59;6180851;23;45264;-80
2021/08/05 09:54:11;;;;;;;;;0.00;0.00;;;;;22.73;51.25;100629.72;6178698;23;45366;-80
2021/08/05 09:56:37;;;;;;;;;0.25;0.25;;;;;22.64;51.04;100602.63;6179180;23;45435;-82
2021/08/05 09:59:07;;;;;;;;;0.25;0.25;;;;;22.90;50.63;100621.84;6179195;23;45936;-82
2021/08/05 10:01:33;;;;;;;;;0.00;0.00;;;;;23.16;49.73;100642.84;6177432;23;45371;-80
2021/08/05 10:04:19;;;;;;;;;0.00;0.00;;;;;23.24;49.22;100637.16;6179461;23;45344;-79
2021/08/05 10:07:05;;;;;;;;;0.50;0.00;;;;;23.32;49.58;100620.84;6157343;23;45273;-79
2021/08/05 10:09:32;;;;;;;;;0.00;0.00;;;;;23.43;48.71;100609.78;6087779;23;46535;-79
2021/08/05 10:12:23;;;;;;;;;0.00;0.00;;;;;23.59;48.00;100618.75;6086533;23;45348;-87
2021/08/05 10:14:51;;;;;;;;;0.25;0.00;;;;;23.52;47.60;100593.41;6085312;23;45279;-82
2021/08/05 10:17:19;;;;;;;;;0.00;0.00;;;;;23.84;46.36;100616.66;6087730;23;45523;-82
2021/08/05 10:19:47;;;;;;;;;0.00;0.00;;;;;23.79;46.93;100611.56;6087815;23;46168;-83
2021/08/05 10:22:16;;;;;;;;;0.25;0.25;;;;;23.63;46.56;100620.31;6087694;23;45404;-83
2021/08/05 10:24:48;;;;;;;;;0.00;0.00;;;;;23.24;47.23;100592.88;6088125;23;45265;-88
2021/08/05 10:27:16;;;;;;;;;0.75;0.75;;;;;23.08;47.26;100613.97;6087420;23;45222;-82
2021/08/05 10:29:42;;;;;;;;;0.00;0.00;;;;;22.81;47.51;100594.88;6087532;23;46295;-84
2021/08/05 10:32:10;;;;;;;;;0.50;0.00;;;;;22.60;48.04;100600.22;6087493;23;45354;-84
2021/08/05 10:34:37;;;;;;;;;0.00;0.00;;;;;22.63;48.27;100606.22;6087539;23;45331;-83
2021/08/05 10:37:04;;;;;;;;;0.00;0.00;;;;;22.67;48.44;100606.09;6088178;23;45506;-81
2021/08/05 10:39:31;;;;;;;;;0.00;0.00;;;;;22.61;48.50;100563.00;6088315;23;45651;-83
2021/08/05 10:42:04;;;;;;;;;0.00;0.00;;;;;22.86;48.23;100576.94;6088671;23;45230;-84
2021/08/05 10:44:29;;;;;;;;;1.00;0.00;;;;;23.04;47.37;100602.63;6089938;23;45340;-84
2021/08/05 10:46:57;;;;;;;;;0.00;0.00;;;;;22.67;47.44;100543.31;6087995;23;45251;-83
2021/08/05 10:49:24;;;;;;;;;0.00;0.00;;;;;22.82;47.85;100585.97;6088313;23;46181;-83
2021/08/05 10:51:50;;;;;;;;;0.00;0.00;;;;;22.73;48.03;100574.84;6089808;23;45321;-84
2021/08/05 10:54:46;;;;;;;;;0.00;0.00;;;;;22.82;47.60;100583.31;6088078;23;45629;-83
2021/08/05 10:57:22;;;;;;;;;0.00;0.00;;;;;22.82;47.91;100578.91;6088579;23;45339;-83
2021/08/05 10:59:59;;;;;;;;;0.00;0.00;;;;;22.77;48.21;100581.75;6088656;23;46297;-83
2021/08/05 11:02:54;;;;;;;;;0.00;0.00;;;;;22.78;47.63;100572.84;6088475;23;45158;-83
2021/08/05 11:05:23;;;;;;;;;0.00;0.00;;;;;22.94;47.49;100572.13;6093158;23;45337;-84
2021/08/05 11:08:12;;;;;;;;;0.00;0.00;;;;;22.97;47.27;100568.50;6087796;23;45389;-83
2021/08/05 11:10:37;;;;;;;;;0.00;0.00;;;;;22.75;47.63;100511.97;6087503;23;45531;-84
2021/08/05 11:13:09;;;;;;;;;0.00;0.00;;;;;23.16;46.87;100569.34;6085362;23;45734;-83
2021/08/05 11:15:34;;;;;;;;;0.00;0.00;;;;;23.23;46.54;100564.63;6087568;23;45397;-84
2021/08/05 11:18:18;;;;;;;;;0.00;0.00;;;;;23.38;46.84;100547.13;6087474;23;45373;-84
2021/08/05 11:20:43;;;;;;;;;0.75;0.00;;;;;23.43;45.85;100541.59;6088165;23;45428;-83
2021/08/05 11:23:34;;;;;;;;;2.00;0.00;;;;;23.50;46.44;100535.03;6087263;23;45338;-84
2021/08/05 11:25:59;;;;;;;;;0.00;0.00;;;;;23.49;45.81;100543.91;6085742;23;45244;-83